sensor_id;sensor_type;location;lat;lon;timestamp;temperature;humidity
28244;DHT22;15510;52.512;13.300;2022-10-16T00:01:46;15.50;99.90
28244;DHT22;15510;52.512;13.300;2022-10-16T00:04:12;15.60;99.90
28244;DHT22;15510;52.512;13.300;2022-10-16T00:06:38;15.60;99.90
28244;DHT22;15510;52.512;13.300;2022-10-16T00:09:05;15.70;99.90
28244;DHT22;15510;52.512;13.300;2022-10-16T00:11:33;15.70;99.90
28244;DHT22;15510;52.512;13.300;2022-10-16T00:14:00;15.70;99.90
28244;DHT22;15510;52.512;13.300;2022-10-16T00:27:00;15.70;99.90
28244;DHT22;15510;52.512;13.300;2022-10-16T00:29:26;15.70;99.90
28244;DHT22;15510;52.512;13.300;2022-10-16T00:31:51;15.60;99.90
28244;DHT22;15510;52.512;13.300;2022-10-16T00:34:17;15.70;99.90
28244;DHT22;15510;52.512;13.300;2022-10-16T00:36:42;15.70;99.90
28244;DHT22;15510;52.512;13.300;2022-10-16T00:39:08;15.70;99.90
28244;DHT22;15510;52.512;13.300;2022-10-16T00:41:34;15.70;99.90
28244;DHT22;15510;52.512;13.300;2022-10-16T00:44:02;15.70;99.90
28244;DHT22;15510;52.512;13.300;2022-10-16T00:46:38;15.70;99.90
28244;DHT22;15510;52.512;13.300;2022-10-16T00:49:10;15.70;99.90
28244;DHT22;15510;52.512;13.300;2022-10-16T00:51:45;15.70;99.90
28244;DHT22;15510;52.512;13.300;2022-10-16T00:54:21;15.70;99.90
28244;DHT22;15510;52.512;13.300;2022-10-16T00:56:49;15.70;99.90
28244;DHT22;15510;52.512;13.300;2022-10-16T00:59:20;15.70;99.90
28244;DHT22;15510;52.512;13.300;2022-10-16T01:01:48;15.70;99.90
28244;DHT22;15510;52.512;13.300;2022-10-16T01:04:13;15.70;99.90
28244;DHT22;15510;52.512;13.300;2022-10-16T01:07:12;15.70;99.90
28244;DHT22;15510;52.512;13.300;2022-10-16T01:09:52;15.70;99.90
28244;DHT22;15510;52.512;13.300;2022-10-16T01:15:02;15.70;99.90
28244;DHT22;15510;52.512;13.300;2022-10-16T01:18:11;15.70;99.90
28244;DHT22;15510;52.512;13.300;2022-10-16T01:20:50;15.70;99.90
28244;DHT22;15510;52.512;13.300;2022-10-16T01:23:36;15.70;99.90
28244;DHT22;15510;52.512;13.300;2022-10-16T01:26:37;15.70;99.90
28244;DHT22;15510;52.512;13.300;2022-10-16T01:34:53;15.70;99.90
28244;DHT22;15510;52.512;13.300;2022-10-16T01:37:32;15.60;99.90
28244;DHT22;15510;52.512;13.300;2022-10-16T01:40:00;15.60;99.90
28244;DHT22;15510;52.512;13.300;2022-10-16T01:42:35;15.70;99.90
28244;DHT22;15510;52.512;13.300;2022-10-16T01:45:02;15.70;99.90
28244;DHT22;15510;52.512;13.300;2022-10-16T01:47:30;15.60;99.90
28244;DHT22;15510;52.512;13.300;2022-10-16T01:49:57;15.60;99.90
28244;DHT22;15510;52.512;13.300;2022-10-16T01:52:25;15.60;99.90
28244;DHT22;15510;52.512;13.300;2022-10-16T01:54:54;15.60;99.90
28244;DHT22;15510;52.512;13.300;2022-10-16T01:57:21;15.50;99.90
28244;DHT22;15510;52.512;13.300;2022-10-16T01:59:53;15.60;99.90
28244;DHT22;15510;52.512;13.300;2022-10-16T02:02:21;15.60;99.90
28244;DHT22;15510;52.512;13.300;2022-10-16T02:04:58;15.60;99.90
28244;DHT22;15510;52.512;13.300;2022-10-16T02:07:24;15.70;99.90
28244;DHT22;15510;52.512;13.300;2022-10-16T02:09:51;15.70;99.90
28244;DHT22;15510;52.512;13.300;2022-10-16T02:12:31;15.70;99.90
28244;DHT22;15510;52.512;13.300;2022-10-16T02:14:59;15.70;99.90
28244;DHT22;15510;52.512;13.300;2022-10-16T02:17:25;15.70;99.90
28244;DHT22;15510;52.512;13.300;2022-10-16T02:19:54;15.70;99.90
28244;DHT22;15510;52.512;13.300;2022-10-16T02:22:28;15.60;99.90
28244;DHT22;15510;52.512;13.300;2022-10-16T02:24:59;15.60;99.90
28244;DHT22;15510;52.512;13.300;2022-10-16T02:27:34;15.60;99.90
28244;DHT22;15510;52.512;13.300;2022-10-16T02:30:08;15.70;99.90
28244;DHT22;15510;52.512;13.300;2022-10-16T02:32:37;15.70;99.90
28244;DHT22;15510;52.512;13.300;2022-10-16T02:35:05;15.70;99.90
28244;DHT22;15510;52.512;13.300;2022-10-16T02:37:32;15.70;99.90
28244;DHT22;15510;52.512;13.300;2022-10-16T02:39:58;15.70;99.90
28244;DHT22;15510;52.512;13.300;2022-10-16T02:42:31;15.70;99.90
28244;DHT22;15510;52.512;13.300;2022-10-16T02:44:58;15.70;99.90
28244;DHT22;15510;52.512;13.300;2022-10-16T02:47:23;15.60;99.90
28244;DHT22;15510;52.512;13.300;2022-10-16T02:49:49;15.60;99.90
28244;DHT22;15510;52.512;13.300;2022-10-16T02:52:14;15.60;99.90
28244;DHT22;15510;52.512;13.300;2022-10-16T02:54:40;15.60;99.90
28244;DHT22;15510;52.512;13.300;2022-10-16T02:57:06;15.60;99.90
28244;DHT22;15510;52.512;13.300;2022-10-16T02:59:31;15.60;99.90
28244;DHT22;15510;52.512;13.300;2022-10-16T03:01:57;15.50;99.90
28244;DHT22;15510;52.512;13.300;2022-10-16T03:04:23;15.50;99.90
28244;DHT22;15510;52.512;13.300;2022-10-16T03:06:48;15.50;99.90
28244;DHT22;15510;52.512;13.300;2022-10-16T03:09:14;15.40;99.90
28244;DHT22;15510;52.512;13.300;2022-10-16T03:11:39;15.40;99.90
28244;DHT22;15510;52.512;13.300;2022-10-16T03:14:05;15.40;99.90
28244;DHT22;15510;52.512;13.300;2022-10-16T03:16:31;15.30;99.90
28244;DHT22;15510;52.512;13.300;2022-10-16T03:18:56;15.30;99.90
28244;DHT22;15510;52.512;13.300;2022-10-16T03:21:22;15.30;99.90
28244;DHT22;15510;52.512;13.300;2022-10-16T03:23:48;15.20;99.90
28244;DHT22;15510;52.512;13.300;2022-10-16T03:26:14;15.30;99.90
28244;DHT22;15510;52.512;13.300;2022-10-16T03:28:39;15.30;99.90
28244;DHT22;15510;52.512;13.300;2022-10-16T03:31:05;15.20;99.90
28244;DHT22;15510;52.512;13.300;2022-10-16T03:33:30;15.20;99.90
28244;DHT22;15510;52.512;13.300;2022-10-16T03:35:57;15.20;99.90
28244;DHT22;15510;52.512;13.300;2022-10-16T03:38:22;15.20;99.90
28244;DHT22;15510;52.512;13.300;2022-10-16T03:40:48;15.10;99.90
28244;DHT22;15510;52.512;13.300;2022-10-16T03:43:14;15.10;99.90
28244;DHT22;15510;52.512;13.300;2022-10-16T03:45:39;15.10;99.90
28244;DHT22;15510;52.512;13.300;2022-10-16T03:48:05;15.20;99.90
28244;DHT22;15510;52.512;13.300;2022-10-16T03:50:31;15.20;99.90
28244;DHT22;15510;52.512;13.300;2022-10-16T03:52:57;15.30;99.90
28244;DHT22;15510;52.512;13.300;2022-10-16T03:55:22;15.30;99.90
28244;DHT22;15510;52.512;13.300;2022-10-16T03:57:48;15.30;99.90
28244;DHT22;15510;52.512;13.300;2022-10-16T04:00:14;15.30;99.90
28244;DHT22;15510;52.512;13.300;2022-10-16T04:02:39;15.30;99.90
28244;DHT22;15510;52.512;13.300;2022-10-16T04:05:05;15.20;99.90
28244;DHT22;15510;52.512;13.300;2022-10-16T04:07:31;15.20;99.90
28244;DHT22;15510;52.512;13.300;2022-10-16T04:09:57;15.20;99.90
28244;DHT22;15510;52.512;13.300;2022-10-16T04:12:25;15.20;99.90
28244;DHT22;15510;52.512;13.300;2022-10-16T04:14:50;15.20;99.90
28244;DHT22;15510;52.512;13.300;2022-10-16T04:17:16;15.20;99.90
28244;DHT22;15510;52.512;13.300;2022-10-16T04:19:42;15.20;99.90
28244;DHT22;15510;52.512;13.300;2022-10-16T04:22:07;15.10;99.90
28244;DHT22;15510;52.512;13.300;2022-10-16T04:24:33;15.20;99.90
28244;DHT22;15510;52.512;13.300;2022-10-16T04:26:59;15.20;99.90
28244;DHT22;15510;52.512;13.300;2022-10-16T04:29:25;15.10;99.90
28244;DHT22;15510;52.512;13.300;2022-10-16T04:31:50;15.10;99.90
28244;DHT22;15510;52.512;13.300;2022-10-16T04:34:16;15.10;99.90
28244;DHT22;15510;52.512;13.300;2022-10-16T04:36:41;15.10;99.90
28244;DHT22;15510;52.512;13.300;2022-10-16T04:39:07;15.00;99.90
28244;DHT22;15510;52.512;13.300;2022-10-16T04:41:33;15.00;99.90
28244;DHT22;15510;52.512;13.300;2022-10-16T04:43:58;15.00;99.90
28244;DHT22;15510;52.512;13.300;2022-10-16T04:46:24;15.00;99.90
28244;DHT22;15510;52.512;13.300;2022-10-16T04:48:50;14.90;99.90
28244;DHT22;15510;52.512;13.300;2022-10-16T04:51:15;14.90;99.90
28244;DHT22;15510;52.512;13.300;2022-10-16T04:53:41;14.80;99.90
28244;DHT22;15510;52.512;13.300;2022-10-16T04:56:07;14.90;99.90
28244;DHT22;15510;52.512;13.300;2022-10-16T04:58:32;14.80;99.90
28244;DHT22;15510;52.512;13.300;2022-10-16T05:00:58;14.80;99.90
28244;DHT22;15510;52.512;13.300;2022-10-16T05:03:24;14.80;99.90
28244;DHT22;15510;52.512;13.300;2022-10-16T05:05:49;14.80;99.90
28244;DHT22;15510;52.512;13.300;2022-10-16T05:08:16;14.80;99.90
28244;DHT22;15510;52.512;13.300;2022-10-16T05:10:43;14.80;99.90
28244;DHT22;15510;52.512;13.300;2022-10-16T05:13:10;14.90;99.90
28244;DHT22;15510;52.512;13.300;2022-10-16T05:15:36;14.90;99.90
28244;DHT22;15510;52.512;13.300;2022-10-16T05:18:02;14.90;99.90
28244;DHT22;15510;52.512;13.300;2022-10-16T05:20:28;14.90;99.90
28244;DHT22;15510;52.512;13.300;2022-10-16T05:22:54;14.90;99.90
28244;DHT22;15510;52.512;13.300;2022-10-16T05:25:19;14.90;99.90
28244;DHT22;15510;52.512;13.300;2022-10-16T05:27:49;14.90;99.90
28244;DHT22;15510;52.512;13.300;2022-10-16T05:30:16;14.90;99.90
28244;DHT22;15510;52.512;13.300;2022-10-16T05:32:49;14.90;99.90
28244;DHT22;15510;52.512;13.300;2022-10-16T05:35:16;14.90;99.90
28244;DHT22;15510;52.512;13.300;2022-10-16T05:37:42;14.90;99.90
28244;DHT22;15510;52.512;13.300;2022-10-16T05:40:08;14.90;99.90
28244;DHT22;15510;52.512;13.300;2022-10-16T05:42:34;15.00;99.90
28244;DHT22;15510;52.512;13.300;2022-10-16T05:45:00;15.00;99.90
28244;DHT22;15510;52.512;13.300;2022-10-16T05:47:26;15.00;99.90
28244;DHT22;15510;52.512;13.300;2022-10-16T05:49:51;15.00;99.90
28244;DHT22;15510;52.512;13.300;2022-10-16T05:52:18;15.00;99.90
28244;DHT22;15510;52.512;13.300;2022-10-16T05:54:44;15.00;99.90
28244;DHT22;15510;52.512;13.300;2022-10-16T05:57:10;15.00;99.90
28244;DHT22;15510;52.512;13.300;2022-10-16T05:59:35;15.10;99.90
28244;DHT22;15510;52.512;13.300;2022-10-16T06:02:02;15.10;99.90
28244;DHT22;15510;52.512;13.300;2022-10-16T06:04:27;15.20;99.90
28244;DHT22;15510;52.512;13.300;2022-10-16T06:06:53;15.20;99.90
28244;DHT22;15510;52.512;13.300;2022-10-16T06:09:18;15.20;99.90
28244;DHT22;15510;52.512;13.300;2022-10-16T06:11:44;15.20;99.90
28244;DHT22;15510;52.512;13.300;2022-10-16T06:14:10;15.30;99.90
28244;DHT22;15510;52.512;13.300;2022-10-16T06:16:37;15.30;99.90
28244;DHT22;15510;52.512;13.300;2022-10-16T06:19:03;15.30;99.90
28244;DHT22;15510;52.512;13.300;2022-10-16T06:21:32;15.40;99.90
28244;DHT22;15510;52.512;13.300;2022-10-16T06:23:58;15.40;99.90
28244;DHT22;15510;52.512;13.300;2022-10-16T06:26:26;15.50;99.90
28244;DHT22;15510;52.512;13.300;2022-10-16T06:28:54;15.60;99.90
28244;DHT22;15510;52.512;13.300;2022-10-16T06:31:21;15.60;99.90
28244;DHT22;15510;52.512;13.300;2022-10-16T06:33:50;15.60;99.90
28244;DHT22;15510;52.512;13.300;2022-10-16T06:36:17;15.60;99.90
28244;DHT22;15510;52.512;13.300;2022-10-16T06:38:43;15.60;99.90
28244;DHT22;15510;52.512;13.300;2022-10-16T06:41:11;15.60;99.90
28244;DHT22;15510;52.512;13.300;2022-10-16T06:43:38;15.70;99.90
28244;DHT22;15510;52.512;13.300;2022-10-16T06:46:05;15.70;99.90
28244;DHT22;15510;52.512;13.300;2022-10-16T06:48:33;15.70;99.90
28244;DHT22;15510;52.512;13.300;2022-10-16T06:51:10;15.70;99.90
28244;DHT22;15510;52.512;13.300;2022-10-16T06:53:39;15.80;99.90
28244;DHT22;15510;52.512;13.300;2022-10-16T06:56:10;15.70;99.90
28244;DHT22;15510;52.512;13.300;2022-10-16T06:58:35;15.70;99.90
28244;DHT22;15510;52.512;13.300;2022-10-16T07:01:01;15.80;99.90
28244;DHT22;15510;52.512;13.300;2022-10-16T07:03:27;15.90;99.90
28244;DHT22;15510;52.512;13.300;2022-10-16T07:05:53;16.10;99.90
28244;DHT22;15510;52.512;13.300;2022-10-16T07:08:18;16.20;99.90
28244;DHT22;15510;52.512;13.300;2022-10-16T07:10:44;16.40;99.90
28244;DHT22;15510;52.512;13.300;2022-10-16T07:13:09;16.60;99.90
28244;DHT22;15510;52.512;13.300;2022-10-16T07:15:38;16.80;99.90
28244;DHT22;15510;52.512;13.300;2022-10-16T07:18:04;16.90;99.90
28244;DHT22;15510;52.512;13.300;2022-10-16T07:20:29;16.90;99.90
28244;DHT22;15510;52.512;13.300;2022-10-16T07:22:55;16.90;99.90
28244;DHT22;15510;52.512;13.300;2022-10-16T07:25:20;16.90;99.90
28244;DHT22;15510;52.512;13.300;2022-10-16T07:27:46;16.90;99.90
28244;DHT22;15510;52.512;13.300;2022-10-16T07:30:12;16.90;99.90
28244;DHT22;15510;52.512;13.300;2022-10-16T07:32:37;17.00;99.90
28244;DHT22;15510;52.512;13.300;2022-10-16T07:35:03;17.00;99.90
28244;DHT22;15510;52.512;13.300;2022-10-16T07:37:29;16.90;99.90
28244;DHT22;15510;52.512;13.300;2022-10-16T07:39:55;17.00;99.90
28244;DHT22;15510;52.512;13.300;2022-10-16T07:42:20;17.00;99.90
28244;DHT22;15510;52.512;13.300;2022-10-16T07:44:46;17.10;99.90
28244;DHT22;15510;52.512;13.300;2022-10-16T07:47:11;17.10;99.90
28244;DHT22;15510;52.512;13.300;2022-10-16T07:49:38;17.00;99.90
28244;DHT22;15510;52.512;13.300;2022-10-16T07:52:03;17.00;99.90
28244;DHT22;15510;52.512;13.300;2022-10-16T07:54:29;17.00;99.90
28244;DHT22;15510;52.512;13.300;2022-10-16T07:56:54;17.00;99.90
28244;DHT22;15510;52.512;13.300;2022-10-16T07:59:20;17.00;99.90
28244;DHT22;15510;52.512;13.300;2022-10-16T08:01:46;16.90;99.90
28244;DHT22;15510;52.512;13.300;2022-10-16T08:04:11;17.00;99.90
28244;DHT22;15510;52.512;13.300;2022-10-16T08:06:39;17.00;99.90
28244;DHT22;15510;52.512;13.300;2022-10-16T08:09:06;17.00;99.90
28244;DHT22;15510;52.512;13.300;2022-10-16T08:11:32;17.10;99.90
28244;DHT22;15510;52.512;13.300;2022-10-16T08:13:58;17.10;99.90
28244;DHT22;15510;52.512;13.300;2022-10-16T08:16:24;17.20;99.90
28244;DHT22;15510;52.512;13.300;2022-10-16T08:18:49;17.20;99.90
28244;DHT22;15510;52.512;13.300;2022-10-16T08:21:20;17.30;99.90
28244;DHT22;15510;52.512;13.300;2022-10-16T08:23:46;17.30;99.90
28244;DHT22;15510;52.512;13.300;2022-10-16T08:26:12;17.40;99.90
28244;DHT22;15510;52.512;13.300;2022-10-16T08:28:38;17.40;99.90
28244;DHT22;15510;52.512;13.300;2022-10-16T08:31:09;17.30;99.90
28244;DHT22;15510;52.512;13.300;2022-10-16T08:33:36;17.30;99.90
28244;DHT22;15510;52.512;13.300;2022-10-16T08:36:03;17.30;99.90
28244;DHT22;15510;52.512;13.300;2022-10-16T08:38:29;17.30;99.90
28244;DHT22;15510;52.512;13.300;2022-10-16T08:41:09;17.20;99.90
28244;DHT22;15510;52.512;13.300;2022-10-16T08:43:55;17.20;99.90
28244;DHT22;15510;52.512;13.300;2022-10-16T08:48:56;17.30;99.90
28244;DHT22;15510;52.512;13.300;2022-10-16T08:51:31;17.30;99.90
28244;DHT22;15510;52.512;13.300;2022-10-16T08:54:45;17.40;99.90
28244;DHT22;15510;52.512;13.300;2022-10-16T08:56:45;17.40;99.90
28244;DHT22;15510;52.512;13.300;2022-10-16T08:59:11;17.40;99.90
28244;DHT22;15510;52.512;13.300;2022-10-16T09:01:42;17.40;99.90
28244;DHT22;15510;52.512;13.300;2022-10-16T09:04:38;17.50;99.90
28244;DHT22;15510;52.512;13.300;2022-10-16T09:07:18;17.60;99.90
28244;DHT22;15510;52.512;13.300;2022-10-16T09:15:26;18.00;99.90
28244;DHT22;15510;52.512;13.300;2022-10-16T09:18:06;18.00;99.90
28244;DHT22;15510;52.512;13.300;2022-10-16T09:20:46;18.10;99.90
28244;DHT22;15510;52.512;13.300;2022-10-16T09:23:21;18.10;99.90
28244;DHT22;15510;52.512;13.300;2022-10-16T09:25:49;18.20;99.90
28244;DHT22;15510;52.512;13.300;2022-10-16T09:28:17;18.20;99.90
28244;DHT22;15510;52.512;13.300;2022-10-16T09:30:43;18.20;99.90
28244;DHT22;15510;52.512;13.300;2022-10-16T09:33:11;18.20;99.90
28244;DHT22;15510;52.512;13.300;2022-10-16T09:35:44;18.20;99.90
28244;DHT22;15510;52.512;13.300;2022-10-16T09:38:25;18.10;99.90
28244;DHT22;15510;52.512;13.300;2022-10-16T09:40:52;18.20;99.90
28244;DHT22;15510;52.512;13.300;2022-10-16T09:43:29;18.20;99.90
28244;DHT22;15510;52.512;13.300;2022-10-16T09:51:02;18.20;99.90
28244;DHT22;15510;52.512;13.300;2022-10-16T09:56:05;18.30;99.90
28244;DHT22;15510;52.512;13.300;2022-10-16T09:58:32;18.30;99.90
28244;DHT22;15510;52.512;13.300;2022-10-16T10:00:59;18.30;99.90
28244;DHT22;15510;52.512;13.300;2022-10-16T10:03:39;18.20;99.90
28244;DHT22;15510;52.512;13.300;2022-10-16T10:06:35;18.30;99.90
28244;DHT22;15510;52.512;13.300;2022-10-16T10:09:30;18.50;99.90
28244;DHT22;15510;52.512;13.300;2022-10-16T10:11:58;18.80;99.90
28244;DHT22;15510;52.512;13.300;2022-10-16T10:14:36;18.80;99.90
28244;DHT22;15510;52.512;13.300;2022-10-16T10:19:48;19.00;99.90
28244;DHT22;15510;52.512;13.300;2022-10-16T10:22:28;19.10;99.90
28244;DHT22;15510;52.512;13.300;2022-10-16T10:33:31;18.70;99.90
28244;DHT22;15510;52.512;13.300;2022-10-16T10:36:08;18.80;99.90
28244;DHT22;15510;52.512;13.300;2022-10-16T10:38:59;18.90;99.90
28244;DHT22;15510;52.512;13.300;2022-10-16T10:44:30;19.20;99.90
28244;DHT22;15510;52.512;13.300;2022-10-16T10:55:18;20.20;99.90
28244;DHT22;15510;52.512;13.300;2022-10-16T11:00:45;21.00;99.90
28244;DHT22;15510;52.512;13.300;2022-10-16T11:06:16;22.50;99.90
28244;DHT22;15510;52.512;13.300;2022-10-16T11:09:03;22.90;99.90
28244;DHT22;15510;52.512;13.300;2022-10-16T11:11:40;23.10;99.90
28244;DHT22;15510;52.512;13.300;2022-10-16T11:14:34;23.00;99.90
28244;DHT22;15510;52.512;13.300;2022-10-16T11:17:11;22.80;99.90
28244;DHT22;15510;52.512;13.300;2022-10-16T11:19:51;22.60;99.90
28244;DHT22;15510;52.512;13.300;2022-10-16T11:22:30;22.30;99.90
28244;DHT22;15510;52.512;13.300;2022-10-16T11:25:06;22.00;99.90
28244;DHT22;15510;52.512;13.300;2022-10-16T11:27:55;21.70;99.90
28244;DHT22;15510;52.512;13.300;2022-10-16T11:30:23;21.40;99.90
28244;DHT22;15510;52.512;13.300;2022-10-16T11:41:07;20.50;99.90
28244;DHT22;15510;52.512;13.300;2022-10-16T11:43:39;20.30;99.90
28244;DHT22;15510;52.512;13.300;2022-10-16T11:46:16;20.20;99.90
28244;DHT22;15510;52.512;13.300;2022-10-16T11:49:02;20.20;99.90
28244;DHT22;15510;52.512;13.300;2022-10-16T11:54:41;20.20;99.90
28244;DHT22;15510;52.512;13.300;2022-10-16T11:57:47;20.10;99.90
28244;DHT22;15510;52.512;13.300;2022-10-16T12:03:04;19.80;99.90
28244;DHT22;15510;52.512;13.300;2022-10-16T12:05:50;19.60;99.90
28244;DHT22;15510;52.512;13.300;2022-10-16T12:08:18;19.50;99.90
28244;DHT22;15510;52.512;13.300;2022-10-16T12:10:46;19.50;99.90
28244;DHT22;15510;52.512;13.300;2022-10-16T12:13:38;19.60;99.90
28244;DHT22;15510;52.512;13.300;2022-10-16T12:16:20;19.80;99.90
28244;DHT22;15510;52.512;13.300;2022-10-16T12:18:47;20.00;99.90
28244;DHT22;15510;52.512;13.300;2022-10-16T12:21:16;20.20;99.90
28244;DHT22;15510;52.512;13.300;2022-10-16T12:23:54;20.60;99.90
28244;DHT22;15510;52.512;13.300;2022-10-16T12:26:33;20.90;99.90
28244;DHT22;15510;52.512;13.300;2022-10-16T12:31:48;21.50;99.90
28244;DHT22;15510;52.512;13.300;2022-10-16T12:34:23;21.90;99.90
28244;DHT22;15510;52.512;13.300;2022-10-16T12:36:52;22.40;99.90
28244;DHT22;15510;52.512;13.300;2022-10-16T12:39:28;22.90;99.90
28244;DHT22;15510;52.512;13.300;2022-10-16T12:42:05;23.00;99.90
28244;DHT22;15510;52.512;13.300;2022-10-16T12:44:35;23.40;99.90
28244;DHT22;15510;52.512;13.300;2022-10-16T12:47:02;24.10;99.90
28244;DHT22;15510;52.512;13.300;2022-10-16T12:51:53;25.40;99.90
28244;DHT22;15510;52.512;13.300;2022-10-16T12:54:34;26.00;99.90
28244;DHT22;15510;52.512;13.300;2022-10-16T13:05:34;23.90;99.90
28244;DHT22;15510;52.512;13.300;2022-10-16T13:08:36;23.00;99.90
28244;DHT22;15510;52.512;13.300;2022-10-16T13:17:09;21.50;99.90
28244;DHT22;15510;52.512;13.300;2022-10-16T13:19:55;21.30;99.90
28244;DHT22;15510;52.512;13.300;2022-10-16T13:25:41;21.00;99.90
28244;DHT22;15510;52.512;13.300;2022-10-16T13:28:13;20.90;99.90
28244;DHT22;15510;52.512;13.300;2022-10-16T13:30:41;20.80;99.90
28244;DHT22;15510;52.512;13.300;2022-10-16T13:33:14;20.70;99.90
28244;DHT22;15510;52.512;13.300;2022-10-16T13:35:49;20.80;99.90
28244;DHT22;15510;52.512;13.300;2022-10-16T13:38:21;20.70;99.90
28244;DHT22;15510;52.512;13.300;2022-10-16T13:41:14;20.60;99.90
28244;DHT22;15510;52.512;13.300;2022-10-16T13:43:46;20.60;99.90
28244;DHT22;15510;52.512;13.300;2022-10-16T13:46:18;20.60;99.90
28244;DHT22;15510;52.512;13.300;2022-10-16T13:48:44;20.60;99.90
28244;DHT22;15510;52.512;13.300;2022-10-16T13:51:16;20.50;99.90
28244;DHT22;15510;52.512;13.300;2022-10-16T13:53:43;20.40;99.90
28244;DHT22;15510;52.512;13.300;2022-10-16T13:56:14;20.20;99.90
28244;DHT22;15510;52.512;13.300;2022-10-16T13:58:41;20.20;99.90
28244;DHT22;15510;52.512;13.300;2022-10-16T14:01:19;20.10;99.90
28244;DHT22;15510;52.512;13.300;2022-10-16T14:03:46;20.10;99.90
28244;DHT22;15510;52.512;13.300;2022-10-16T14:06:14;20.10;99.90
28244;DHT22;15510;52.512;13.300;2022-10-16T14:09:08;20.00;99.90
28244;DHT22;15510;52.512;13.300;2022-10-16T14:11:42;19.90;99.90
28244;DHT22;15510;52.512;13.300;2022-10-16T14:14:11;19.80;99.90
28244;DHT22;15510;52.512;13.300;2022-10-16T14:16:40;19.80;99.90
28244;DHT22;15510;52.512;13.300;2022-10-16T14:21:44;19.70;99.90
28244;DHT22;15510;52.512;13.300;2022-10-16T14:24:19;19.80;99.90
28244;DHT22;15510;52.512;13.300;2022-10-16T14:26:48;19.80;99.90
28244;DHT22;15510;52.512;13.300;2022-10-16T14:29:18;19.80;99.90
28244;DHT22;15510;52.512;13.300;2022-10-16T14:31:55;19.70;99.90
28244;DHT22;15510;52.512;13.300;2022-10-16T14:34:29;19.70;99.90
28244;DHT22;15510;52.512;13.300;2022-10-16T14:37:05;19.60;99.90
28244;DHT22;15510;52.512;13.300;2022-10-16T14:39:33;19.60;99.90
28244;DHT22;15510;52.512;13.300;2022-10-16T14:41:59;19.60;99.90
28244;DHT22;15510;52.512;13.300;2022-10-16T14:44:33;19.60;99.90
28244;DHT22;15510;52.512;13.300;2022-10-16T14:47:12;19.50;99.90
28244;DHT22;15510;52.512;13.300;2022-10-16T14:49:41;19.50;99.90
28244;DHT22;15510;52.512;13.300;2022-10-16T14:52:12;19.40;99.90
28244;DHT22;15510;52.512;13.300;2022-10-16T14:54:37;19.40;99.90
28244;DHT22;15510;52.512;13.300;2022-10-16T14:57:03;19.30;99.90
28244;DHT22;15510;52.512;13.300;2022-10-16T14:59:36;19.30;99.90
28244;DHT22;15510;52.512;13.300;2022-10-16T15:02:18;19.20;99.90
28244;DHT22;15510;52.512;13.300;2022-10-16T15:04:44;19.20;99.90
28244;DHT22;15510;52.512;13.300;2022-10-16T15:07:10;19.20;99.90
28244;DHT22;15510;52.512;13.300;2022-10-16T15:09:35;19.20;99.90
28244;DHT22;15510;52.512;13.300;2022-10-16T15:12:01;19.10;99.90
28244;DHT22;15510;52.512;13.300;2022-10-16T15:14:29;19.10;99.90
28244;DHT22;15510;52.512;13.300;2022-10-16T15:16:55;19.00;99.90
28244;DHT22;15510;52.512;13.300;2022-10-16T15:19:21;18.90;99.90
28244;DHT22;15510;52.512;13.300;2022-10-16T15:21:47;18.80;99.90
28244;DHT22;15510;52.512;13.300;2022-10-16T15:24:14;18.80;99.90
28244;DHT22;15510;52.512;13.300;2022-10-16T15:26:39;18.70;99.90
28244;DHT22;15510;52.512;13.300;2022-10-16T15:29:06;18.60;99.90
28244;DHT22;15510;52.512;13.300;2022-10-16T15:31:32;18.50;99.90
28244;DHT22;15510;52.512;13.300;2022-10-16T15:33:57;18.50;99.90
28244;DHT22;15510;52.512;13.300;2022-10-16T15:36:35;18.50;99.90
28244;DHT22;15510;52.512;13.300;2022-10-16T15:39:05;18.40;99.90
28244;DHT22;15510;52.512;13.300;2022-10-16T15:41:31;18.40;99.90
28244;DHT22;15510;52.512;13.300;2022-10-16T15:43:57;18.30;99.90
28244;DHT22;15510;52.512;13.300;2022-10-16T15:46:26;18.30;99.90
28244;DHT22;15510;52.512;13.300;2022-10-16T15:48:59;18.20;99.90
28244;DHT22;15510;52.512;13.300;2022-10-16T15:51:26;18.20;99.90
28244;DHT22;15510;52.512;13.300;2022-10-16T15:53:58;18.10;99.90
28244;DHT22;15510;52.512;13.300;2022-10-16T15:56:24;18.10;99.90
28244;DHT22;15510;52.512;13.300;2022-10-16T15:58:52;18.00;99.90
28244;DHT22;15510;52.512;13.300;2022-10-16T16:01:17;18.00;99.90
28244;DHT22;15510;52.512;13.300;2022-10-16T16:03:43;17.90;99.90
28244;DHT22;15510;52.512;13.300;2022-10-16T16:06:12;17.80;99.90
28244;DHT22;15510;52.512;13.300;2022-10-16T16:08:38;17.80;99.90
28244;DHT22;15510;52.512;13.300;2022-10-16T16:11:09;17.80;99.90
28244;DHT22;15510;52.512;13.300;2022-10-16T16:13:35;17.70;99.90
28244;DHT22;15510;52.512;13.300;2022-10-16T16:16:14;17.60;99.90
28244;DHT22;15510;52.512;13.300;2022-10-16T16:18:42;17.50;99.90
28244;DHT22;15510;52.512;13.300;2022-10-16T16:21:10;17.40;99.90
28244;DHT22;15510;52.512;13.300;2022-10-16T16:23:37;17.40;99.90
28244;DHT22;15510;52.512;13.300;2022-10-16T16:26:28;17.30;99.90
28244;DHT22;15510;52.512;13.300;2022-10-16T16:28:59;17.20;99.90
28244;DHT22;15510;52.512;13.300;2022-10-16T16:31:26;17.20;99.90
28244;DHT22;15510;52.512;13.300;2022-10-16T16:33:53;17.20;99.90
28244;DHT22;15510;52.512;13.300;2022-10-16T16:36:18;17.20;99.90
28244;DHT22;15510;52.512;13.300;2022-10-16T16:38:45;17.10;99.90
28244;DHT22;15510;52.512;13.300;2022-10-16T16:41:22;17.10;99.90
28244;DHT22;15510;52.512;13.300;2022-10-16T16:43:48;17.10;99.90
28244;DHT22;15510;52.512;13.300;2022-10-16T16:46:14;17.00;99.90
28244;DHT22;15510;52.512;13.300;2022-10-16T16:48:42;16.90;99.90
28244;DHT22;15510;52.512;13.300;2022-10-16T16:51:10;16.90;99.90
28244;DHT22;15510;52.512;13.300;2022-10-16T16:53:40;16.80;99.90
28244;DHT22;15510;52.512;13.300;2022-10-16T16:56:06;16.80;99.90
28244;DHT22;15510;52.512;13.300;2022-10-16T16:58:33;16.70;99.90
28244;DHT22;15510;52.512;13.300;2022-10-16T17:00:59;16.70;99.90
28244;DHT22;15510;52.512;13.300;2022-10-16T17:03:27;16.60;99.90
28244;DHT22;15510;52.512;13.300;2022-10-16T17:06:02;16.50;99.90
28244;DHT22;15510;52.512;13.300;2022-10-16T17:08:29;16.50;99.90
28244;DHT22;15510;52.512;13.300;2022-10-16T17:10:56;16.40;99.90
28244;DHT22;15510;52.512;13.300;2022-10-16T17:13:26;16.40;99.90
28244;DHT22;15510;52.512;13.300;2022-10-16T17:15:52;16.30;99.90